createdAt,value
2022-08-09T00:02:03.701Z,60.44
2022-08-09T00:08:31.679Z,60.75
2022-08-09T00:14:47.433Z,61.12
2022-08-09T00:21:07.767Z,61.65
2022-08-09T00:27:29.616Z,62.04
2022-08-09T00:33:51.371Z,62.05
2022-08-09T00:40:17.106Z,63.01
2022-08-09T00:46:44.162Z,63.59
2022-08-09T00:52:55.592Z,64.08
2022-08-09T00:59:15.571Z,64.59
2022-08-09T01:05:50.610Z,64.81
2022-08-09T01:11:58.605Z,64.73
2022-08-09T01:18:29.650Z,65.44
2022-08-09T01:24:43.915Z,65.56
2022-08-09T01:31:06.067Z,65.82
2022-08-09T01:37:42.986Z,66.36
2022-08-09T01:43:51.439Z,66.81
2022-08-09T01:50:07.804Z,67
2022-08-09T01:56:30.567Z,67.05
2022-08-09T02:02:50.621Z,67.27
2022-08-09T02:09:13.593Z,67.32
2022-08-09T02:15:36.379Z,67.41
2022-08-09T02:21:56.656Z,67.44
2022-08-09T02:28:17.718Z,67.66
2022-08-09T02:34:41.187Z,68.15
2022-08-09T02:40:59.677Z,68.75
2022-08-09T02:47:22.593Z,69.05
2022-08-09T02:53:43.045Z,69
2022-08-09T03:00:11.688Z,68.99
2022-08-09T03:06:27.319Z,69.76
2022-08-09T03:12:49.288Z,69.84
2022-08-09T03:19:14.234Z,69.96
2022-08-09T03:25:57.215Z,70.21
2022-08-09T03:31:59.589Z,70.5
2022-08-09T03:48:29.346Z,70.96
2022-08-09T03:54:39.565Z,71
2022-08-09T04:01:02.658Z,71.19
2022-08-09T04:07:22.602Z,72.55
2022-08-09T04:14:37.803Z,72.96
2022-08-09T04:20:05.580Z,72.93
2022-08-09T04:26:35.028Z,72.66
2022-08-09T04:32:48.660Z,73.22
2022-08-09T04:39:11.763Z,73
2022-08-09T04:45:35.929Z,73.94
2022-08-09T04:51:54.691Z,73.4
2022-08-09T04:58:14.600Z,72.84
2022-08-09T05:04:37.629Z,73.07
2022-08-09T05:10:57.559Z,73.35
2022-08-09T05:18:37.346Z,73.43
2022-08-09T05:23:51.343Z,72.45
2022-08-09T05:30:03.562Z,72.12
2022-08-09T05:36:26.489Z,71.82
2022-08-09T05:42:46.578Z,70.97
2022-08-09T05:49:07.392Z,71.14
2022-08-09T05:55:31.203Z,71.16
2022-08-09T06:01:49.595Z,70.81
2022-08-09T06:08:12.576Z,69.85
2022-08-09T06:14:32.709Z,69.03
2022-08-09T06:20:56.920Z,68.82
2022-08-09T06:27:15.865Z,68.16
2022-08-09T06:33:39.601Z,68.16
2022-08-09T06:40:00.711Z,67.32
2022-08-09T06:46:39.353Z,66.3
2022-08-09T06:52:41.638Z,65.23
2022-08-09T07:00:53.206Z,64.28
2022-08-09T07:05:24.576Z,63.24
2022-08-09T07:11:52.439Z,62.51
2022-08-09T07:18:07.622Z,62
2022-08-09T07:24:39.985Z,61.35
2022-08-09T07:30:51.585Z,60.34
2022-08-09T07:37:15.682Z,60.09
2022-08-09T07:43:40.939Z,59.3
2022-08-09T07:50:05.618Z,58.06
2022-08-09T07:56:26.461Z,58.35
2022-08-09T08:02:42.720Z,56.76
2022-08-09T08:09:05.218Z,55.39
2022-08-09T08:15:24.195Z,54.73
2022-08-09T08:21:52.517Z,53.61
2022-08-09T08:28:06.618Z,52.94
2022-08-09T08:34:26.571Z,52.34
2022-08-09T08:40:49.751Z,52.63
2022-08-09T08:47:12.696Z,52.7
2022-08-09T08:53:37.119Z,49.73
2022-08-09T09:09:41.357Z,50.11
2022-08-09T09:15:59.597Z,48.03
2022-08-09T09:22:26.536Z,46.62
2022-08-09T09:28:53.259Z,46.41
2022-08-09T09:35:07.728Z,45.91
2022-08-09T09:41:25.582Z,44.52
2022-08-09T09:47:56.824Z,43.42
2022-08-09T09:54:18.104Z,41.87
2022-08-09T10:00:31.589Z,43
2022-08-09T10:06:52.228Z,40.5
2022-08-09T10:13:23.134Z,42.14
2022-08-09T10:19:34.561Z,38.23
2022-08-09T10:26:04.820Z,38.56
2022-08-09T10:32:38.499Z,36.19
2022-08-09T10:38:55.208Z,36.84
2022-08-09T10:45:00.717Z,36.6
2022-08-09T10:51:29.452Z,35.09
2022-08-09T10:57:43.585Z,33.44
2022-08-09T11:04:06.918Z,31.81
2022-08-09T11:10:26.717Z,32.43
2022-08-09T11:16:49.581Z,31.1
2022-08-09T11:23:10.306Z,31.3
2022-08-09T11:30:05.300Z,29.62
2022-08-09T11:35:52.567Z,28.59
2022-08-09T11:42:15.632Z,29.17
2022-08-09T11:48:35.958Z,28.53
2022-08-09T11:54:58.556Z,28.5
2022-08-09T12:01:37.897Z,26.76
2022-08-09T12:07:42.489Z,26.94
2022-08-09T12:14:06.722Z,26.84
2022-08-09T12:20:24.582Z,25.69
2022-08-09T12:26:44.744Z,24.72
2022-08-09T12:33:07.579Z,26.01
2022-08-09T12:39:27.730Z,25.48
2022-08-09T12:45:59.521Z,26.5
2022-08-09T12:52:10.652Z,26.01
2022-08-09T12:58:33.975Z,25.43
2022-08-09T13:04:53.573Z,24.33
2022-08-09T13:11:23.433Z,23.74
2022-08-09T13:17:44.619Z,23.7
2022-08-09T13:24:06.266Z,25.17
2022-08-09T13:30:49.927Z,26.21
2022-08-09T13:36:43.528Z,26.55
2022-08-09T13:43:03.586Z,28.38
2022-08-09T13:49:25.591Z,29.66
2022-08-09T13:55:47.871Z,28.16
2022-08-09T14:02:08.644Z,26.5
2022-08-09T14:08:28.587Z,26.37
2022-08-09T14:14:53.620Z,27.67
2022-08-09T14:21:11.588Z,26.83
2022-08-09T14:39:40.795Z,26.53
2022-08-09T14:46:41.139Z,26.99
2022-08-09T14:52:19.584Z,27.14
2022-08-09T14:58:43.629Z,27.38
2022-08-09T15:05:02.563Z,26.81
2022-08-09T15:11:22.584Z,27.16
2022-08-09T15:17:50.059Z,27.76
2022-08-09T15:24:12.355Z,28.81
2022-08-09T15:30:47.903Z,27.64
2022-08-09T15:36:48.874Z,27.49
2022-08-09T15:43:13.379Z,28.11
2022-08-09T15:49:31.572Z,28.38
2022-08-09T15:56:20.082Z,28.6
2022-08-09T16:02:14.571Z,27.83
2022-08-09T16:08:37.572Z,27.58
2022-08-09T16:14:57.575Z,27.29
2022-08-09T16:21:25.286Z,27
2022-08-09T16:27:40.817Z,26.66
2022-08-09T16:34:03.965Z,27.33
2022-08-09T16:40:30.141Z,27.99
2022-08-09T16:46:54.836Z,28
2022-08-09T16:53:06.573Z,28.24
2022-08-09T16:59:29.596Z,28.02
2022-08-09T17:06:03.145Z,28.74
2022-08-09T17:12:12.570Z,29.16
2022-08-09T17:18:32.580Z,29.51
2022-08-09T17:24:55.822Z,29.87
2022-08-09T17:31:15.986Z,29.86
2022-08-09T17:38:03.138Z,30.01
2022-08-09T17:44:07.147Z,30.71
2022-08-09T17:50:25.184Z,31.67
2022-08-09T17:56:41.607Z,32.67
2022-08-09T18:03:04.723Z,33.25
2022-08-09T18:09:24.570Z,34.1
2022-08-09T18:15:50.624Z,34.89
2022-08-09T18:22:13.021Z,35.76
2022-08-09T18:30:37.184Z,35.82
2022-08-09T18:34:50.574Z,35.81
2022-08-09T18:41:13.818Z,36.08
2022-08-09T18:47:37.074Z,36.27
2022-08-09T18:54:00.889Z,36.7
2022-08-09T19:00:19.950Z,36.9
2022-08-09T19:06:39.575Z,37.07
2022-08-09T19:13:18.279Z,37.69
2022-08-09T19:19:25.762Z,37.93
2022-08-09T19:26:01.654Z,38.37
2022-08-09T19:32:05.551Z,38.55
2022-08-09T19:38:25.575Z,38.98
2022-08-09T19:44:49.219Z,39.11
2022-08-09T19:51:08.557Z,39.53
2022-08-09T19:57:31.552Z,39.8
2022-08-09T20:04:08.013Z,39.75
2022-08-09T20:10:17.457Z,40.23
2022-08-09T20:33:03.069Z,41.26
2022-08-09T20:39:28.637Z,41.82
2022-08-09T20:45:58.174Z,42.2
2022-08-09T20:52:05.554Z,42.66
2022-08-09T20:58:28.558Z,42.89
2022-08-09T21:05:50.025Z,43.47
2022-08-09T21:18:12.254Z,43.78
2022-08-09T21:23:57.813Z,44.35
2022-08-09T21:30:14.575Z,44.69
2022-08-09T21:36:37.572Z,44.8
2022-08-09T21:42:57.559Z,44.9
2022-08-09T21:49:20.580Z,45.42
2022-08-09T21:55:40.558Z,45.65
2022-08-09T22:19:59.980Z,47.76
2022-08-09T22:26:23.393Z,48.96
2022-08-09T22:32:41.547Z,49.17
2022-08-09T22:39:01.572Z,49.67
2022-08-09T22:48:05.530Z,49.88
2022-08-09T22:51:49.739Z,50.26
2022-08-09T22:58:07.657Z,50.53
2022-08-09T23:04:27.555Z,50.87
2022-08-09T23:10:50.586Z,51.02
2022-08-09T23:17:10.593Z,51.66
2022-08-09T23:23:33.559Z,52.43
2022-08-09T23:29:53.582Z,52.19
2022-08-09T23:36:16.569Z,52.1
2022-08-09T23:42:36.573Z,51.98
2022-08-09T23:48:59.562Z,52.57
2022-08-09T23:55:19.609Z,53.32
